TimeEST,TemperatureF,Dew PointF,Humidity,Sea Level PressureIn,VisibilityMPH,Wind Direction,Wind SpeedMPH,Gust SpeedMPH,PrecipitationIn,Events,Conditions,WindDirDegrees,DateUTC
12:53 AM,33.1,19.0,56,30.40,10.0,NNE,8.1,-,N/A,,Clear,20,2014-01-04 05:53:00
1:53 AM,33.1,17.1,52,30.40,10.0,NNE,8.1,-,N/A,,Partly Cloudy,20,2014-01-04 06:53:00
2:53 AM,33.1,15.1,48,30.40,10.0,NNE,10.4,-,N/A,,Clear,30,2014-01-04 07:53:00
3:53 AM,33.1,16.0,50,30.39,10.0,NNE,9.2,-,N/A,,Mostly Cloudy,20,2014-01-04 08:53:00
4:46 AM,33.8,17.6,52,30.37,10.0,NNE,10.4,-,N/A,,Overcast,20,2014-01-04 09:46:00
4:53 AM,34.0,17.1,50,30.37,10.0,NNE,10.4,-,N/A,,Overcast,20,2014-01-04 09:53:00
5:53 AM,35.1,18.0,50,30.38,10.0,NNE,10.4,-,N/A,,Overcast,20,2014-01-04 10:53:00
6:53 AM,36.0,21.0,55,30.39,10.0,NNE,9.2,-,N/A,,Overcast,30,2014-01-04 11:53:00
7:53 AM,36.0,21.9,57,30.40,10.0,NE,10.4,-,N/A,,Overcast,40,2014-01-04 12:53:00
8:53 AM,37.9,23.0,55,30.42,10.0,NNE,8.1,-,N/A,,Overcast,30,2014-01-04 13:53:00
9:42 AM,39.2,24.8,56,30.40,10.0,NNE,12.7,-,N/A,,Overcast,20,2014-01-04 14:42:00
9:53 AM,39.9,25.0,55,30.41,10.0,NNE,9.2,-,N/A,,Overcast,20,2014-01-04 14:53:00
10:53 AM,44.1,28.0,53,30.40,10.0,NNE,10.4,-,N/A,,Overcast,30,2014-01-04 15:53:00
11:07 AM,44.6,28.4,53,30.40,10.0,NNE,9.2,-,N/A,,Overcast,20,2014-01-04 16:07:00
11:53 AM,46.9,30.9,54,30.38,10.0,North,10.4,-,N/A,,Overcast,350,2014-01-04 16:53:00
12:53 PM,48.9,33.1,54,30.33,10.0,NE,8.1,-,N/A,,Overcast,40,2014-01-04 17:53:00
1:53 PM,50.0,36.0,59,30.29,10.0,NNE,9.2,-,N/A,,Overcast,30,2014-01-04 18:53:00
2:53 PM,51.1,36.0,56,30.31,10.0,NNE,5.8,-,N/A,,Overcast,20,2014-01-04 19:53:00
3:53 PM,50.0,37.0,61,30.30,10.0,NNE,9.2,-,N/A,,Overcast,20,2014-01-04 20:53:00
4:53 PM,50.0,37.0,61,30.28,10.0,North,8.1,-,N/A,,Overcast,10,2014-01-04 21:53:00
5:53 PM,48.9,37.9,66,30.28,10.0,North,5.8,-,N/A,,Overcast,10,2014-01-04 22:53:00
6:53 PM,48.0,37.0,66,30.28,10.0,North,8.1,-,N/A,,Overcast,360,2014-01-04 23:53:00
7:53 PM,46.9,35.1,63,30.28,10.0,NE,9.2,-,N/A,,Overcast,40,2014-01-05 00:53:00
8:53 PM,46.0,34.0,63,30.28,10.0,NNE,6.9,-,N/A,,Mostly Cloudy,20,2014-01-05 01:53:00
9:53 PM,45.0,35.1,68,30.25,10.0,NNE,6.9,-,N/A,,Mostly Cloudy,20,2014-01-05 02:53:00
10:53 PM,45.0,36.0,71,30.22,10.0,NNE,5.8,-,N/A,,Overcast,30,2014-01-05 03:53:00
11:21 PM,44.6,35.6,71,30.20,10.0,NNE,6.9,-,N/A,,Overcast,30,2014-01-05 04:21:00
11:53 PM,45.0,36.0,71,30.20,10.0,NNE,4.6,-,N/A,,Overcast,30,2014-01-05 04:53:00